San Marcos Municipal Airport
KHYI : now visible

Airfield :











YOU CAN JOIN US ON...

 
LOGIN :

Register | Disclaimer

   EN    FR    IT 

 









Legend :    VFR   Marginal VFR   IFR   Intensive IFR   Very Intensive IFR
Visi :
Ceiling :
>= 8 km
>= 3000ft
5 to 8 km
1000 to 3000 ft
1500m to 5 km
500 to 1000 ft
800 to 1500m
200 to 500 ft
< 800m
< 200 ft
Symbols :   Thunderstorms  Fog  Heavy snow  Heavy precipitations  Wind > 20 kt






- Airport Elevation : 597 ft


KHYI - San Marcos Municipal

CURRENT METAR :
  • 071456Z 00000KT 10SM CLR 24/14 A3025 RMK AO2 SLPNO T02360138 53013 $

EXPIRED METARs :
  • 071356Z 00000KT 10SM CLR 20/14 A3023 RMK AO2 SLP229 T02000140 $
  • 071256Z 00000KT 10SM CLR 19/13 A3022 RMK AO2 SLP224 T01900130 $

TAF N/A
KZHU FIR / North America



MET'MAP, your aeronautical weather chart ! - Copyright ORBIFLY December 2007 - Disclaimer

ORBIFLY MET'MAP TEAM :

Programming & Development : Alexandra Zaïnal
Original concept : Baudouin d'Aumeries
Technical & hardware support : Manuel Goepfert
Assistance : Marc-Olivier Méhu




SOURCES & CREDITS :

   NOAA       Earth
Advisory